sensor_id;sensor_type;location;lat;lon;timestamp;temperature;humidity
22645;DHT22;11489;50.834;6.752;2023-12-20T00:02:21;7.50;98.60
22645;DHT22;11489;50.834;6.752;2023-12-20T00:04:47;7.50;98.60
22645;DHT22;11489;50.834;6.752;2023-12-20T00:07:13;7.60;98.70
22645;DHT22;11489;50.834;6.752;2023-12-20T00:09:39;7.60;98.70
22645;DHT22;11489;50.834;6.752;2023-12-20T00:12:04;7.60;98.70
22645;DHT22;11489;50.834;6.752;2023-12-20T00:14:30;7.60;98.70
22645;DHT22;11489;50.834;6.752;2023-12-20T00:16:56;7.60;98.70
22645;DHT22;11489;50.834;6.752;2023-12-20T00:19:21;7.60;98.70
22645;DHT22;11489;50.834;6.752;2023-12-20T00:21:47;7.60;98.70
22645;DHT22;11489;50.834;6.752;2023-12-20T00:24:13;7.60;98.70
22645;DHT22;11489;50.834;6.752;2023-12-20T00:26:38;7.70;98.70
22645;DHT22;11489;50.834;6.752;2023-12-20T00:29:04;7.70;98.70
22645;DHT22;11489;50.834;6.752;2023-12-20T00:31:30;7.70;98.70
22645;DHT22;11489;50.834;6.752;2023-12-20T00:33:55;7.70;98.70
22645;DHT22;11489;50.834;6.752;2023-12-20T00:36:21;7.70;98.70
22645;DHT22;11489;50.834;6.752;2023-12-20T00:38:48;7.70;98.70
22645;DHT22;11489;50.834;6.752;2023-12-20T00:41:13;7.70;98.70
22645;DHT22;11489;50.834;6.752;2023-12-20T00:43:39;7.70;98.70
22645;DHT22;11489;50.834;6.752;2023-12-20T00:46:05;7.70;98.70
22645;DHT22;11489;50.834;6.752;2023-12-20T00:48:31;7.70;98.60
22645;DHT22;11489;50.834;6.752;2023-12-20T00:50:57;7.70;98.60
22645;DHT22;11489;50.834;6.752;2023-12-20T00:53:23;7.70;98.50
22645;DHT22;11489;50.834;6.752;2023-12-20T00:55:48;7.70;98.40
22645;DHT22;11489;50.834;6.752;2023-12-20T00:58:15;7.70;98.40
22645;DHT22;11489;50.834;6.752;2023-12-20T01:00:41;7.70;98.50
22645;DHT22;11489;50.834;6.752;2023-12-20T01:03:08;7.70;98.50
22645;DHT22;11489;50.834;6.752;2023-12-20T01:05:34;7.70;98.50
22645;DHT22;11489;50.834;6.752;2023-12-20T01:07:59;7.70;98.60
22645;DHT22;11489;50.834;6.752;2023-12-20T01:10:25;7.70;98.60
22645;DHT22;11489;50.834;6.752;2023-12-20T01:12:53;7.70;98.60
22645;DHT22;11489;50.834;6.752;2023-12-20T01:15:19;7.70;98.50
22645;DHT22;11489;50.834;6.752;2023-12-20T01:17:44;7.70;98.50
22645;DHT22;11489;50.834;6.752;2023-12-20T01:20:10;7.60;98.50
22645;DHT22;11489;50.834;6.752;2023-12-20T01:22:36;7.60;98.40
22645;DHT22;11489;50.834;6.752;2023-12-20T01:25:02;7.60;98.30
22645;DHT22;11489;50.834;6.752;2023-12-20T01:27:28;7.60;98.20
22645;DHT22;11489;50.834;6.752;2023-12-20T01:29:54;7.60;98.10
22645;DHT22;11489;50.834;6.752;2023-12-20T01:32:19;7.50;98.00
22645;DHT22;11489;50.834;6.752;2023-12-20T01:34:45;7.50;98.00
22645;DHT22;11489;50.834;6.752;2023-12-20T01:37:11;7.50;98.30
22645;DHT22;11489;50.834;6.752;2023-12-20T01:39:36;7.40;98.00
22645;DHT22;11489;50.834;6.752;2023-12-20T01:42:02;7.40;98.10
22645;DHT22;11489;50.834;6.752;2023-12-20T01:44:28;7.30;98.10
22645;DHT22;11489;50.834;6.752;2023-12-20T01:46:54;7.30;98.10
22645;DHT22;11489;50.834;6.752;2023-12-20T01:49:20;7.30;98.10
22645;DHT22;11489;50.834;6.752;2023-12-20T01:51:46;7.30;98.20
22645;DHT22;11489;50.834;6.752;2023-12-20T01:54:12;7.20;98.20
22645;DHT22;11489;50.834;6.752;2023-12-20T01:56:39;7.20;98.20
22645;DHT22;11489;50.834;6.752;2023-12-20T01:59:06;7.20;98.10
22645;DHT22;11489;50.834;6.752;2023-12-20T02:01:32;7.20;97.80
22645;DHT22;11489;50.834;6.752;2023-12-20T02:03:58;7.10;97.50
22645;DHT22;11489;50.834;6.752;2023-12-20T02:06:24;7.10;97.30
22645;DHT22;11489;50.834;6.752;2023-12-20T02:08:54;7.00;97.10
22645;DHT22;11489;50.834;6.752;2023-12-20T02:11:20;6.90;96.90
22645;DHT22;11489;50.834;6.752;2023-12-20T02:13:46;6.80;96.80
22645;DHT22;11489;50.834;6.752;2023-12-20T02:16:12;6.70;96.80
22645;DHT22;11489;50.834;6.752;2023-12-20T02:18:39;6.60;96.80
22645;DHT22;11489;50.834;6.752;2023-12-20T02:21:05;6.50;96.70
22645;DHT22;11489;50.834;6.752;2023-12-20T02:23:31;6.40;96.80
22645;DHT22;11489;50.834;6.752;2023-12-20T02:25:57;6.30;96.90
22645;DHT22;11489;50.834;6.752;2023-12-20T02:28:22;6.30;97.00
22645;DHT22;11489;50.834;6.752;2023-12-20T02:30:48;6.20;97.10
22645;DHT22;11489;50.834;6.752;2023-12-20T02:33:15;6.20;97.30
22645;DHT22;11489;50.834;6.752;2023-12-20T02:35:41;6.10;97.30
22645;DHT22;11489;50.834;6.752;2023-12-20T02:38:06;6.10;97.30
22645;DHT22;11489;50.834;6.752;2023-12-20T02:40:32;6.10;97.30
22645;DHT22;11489;50.834;6.752;2023-12-20T02:42:58;6.10;97.40
22645;DHT22;11489;50.834;6.752;2023-12-20T02:45:23;6.00;97.50
22645;DHT22;11489;50.834;6.752;2023-12-20T02:47:49;6.00;97.60
22645;DHT22;11489;50.834;6.752;2023-12-20T02:50:15;6.00;97.70
22645;DHT22;11489;50.834;6.752;2023-12-20T02:52:40;6.00;97.80
22645;DHT22;11489;50.834;6.752;2023-12-20T02:55:06;6.00;98.10
22645;DHT22;11489;50.834;6.752;2023-12-20T02:57:32;6.00;97.80
22645;DHT22;11489;50.834;6.752;2023-12-20T02:59:58;6.00;97.90
22645;DHT22;11489;50.834;6.752;2023-12-20T03:02:24;6.00;98.20
22645;DHT22;11489;50.834;6.752;2023-12-20T03:04:50;6.00;97.90
22645;DHT22;11489;50.834;6.752;2023-12-20T03:07:15;6.00;98.00
22645;DHT22;11489;50.834;6.752;2023-12-20T03:09:41;6.10;98.00
22645;DHT22;11489;50.834;6.752;2023-12-20T03:12:07;6.00;98.10
22645;DHT22;11489;50.834;6.752;2023-12-20T03:14:32;6.10;98.20
22645;DHT22;11489;50.834;6.752;2023-12-20T03:16:58;6.10;98.20
22645;DHT22;11489;50.834;6.752;2023-12-20T03:19:23;6.10;98.20
22645;DHT22;11489;50.834;6.752;2023-12-20T03:21:50;6.20;98.30
22645;DHT22;11489;50.834;6.752;2023-12-20T03:24:15;6.20;98.30
22645;DHT22;11489;50.834;6.752;2023-12-20T03:26:41;6.20;98.30
22645;DHT22;11489;50.834;6.752;2023-12-20T03:29:06;6.20;98.30
22645;DHT22;11489;50.834;6.752;2023-12-20T03:31:32;6.20;98.30
22645;DHT22;11489;50.834;6.752;2023-12-20T03:33:58;6.30;98.30
22645;DHT22;11489;50.834;6.752;2023-12-20T03:36:23;6.30;98.20
22645;DHT22;11489;50.834;6.752;2023-12-20T03:38:49;6.30;98.30
22645;DHT22;11489;50.834;6.752;2023-12-20T03:41:15;6.40;98.20
22645;DHT22;11489;50.834;6.752;2023-12-20T03:43:41;6.40;98.20
22645;DHT22;11489;50.834;6.752;2023-12-20T03:46:08;6.40;98.10
22645;DHT22;11489;50.834;6.752;2023-12-20T03:48:34;6.40;98.10
22645;DHT22;11489;50.834;6.752;2023-12-20T03:50:59;6.40;98.00
22645;DHT22;11489;50.834;6.752;2023-12-20T03:53:25;6.40;98.00
22645;DHT22;11489;50.834;6.752;2023-12-20T03:55:51;6.40;98.00
22645;DHT22;11489;50.834;6.752;2023-12-20T03:58:16;6.40;98.00
22645;DHT22;11489;50.834;6.752;2023-12-20T04:00:42;6.40;97.90
22645;DHT22;11489;50.834;6.752;2023-12-20T04:03:07;6.40;97.90
22645;DHT22;11489;50.834;6.752;2023-12-20T04:05:33;6.40;97.90
22645;DHT22;11489;50.834;6.752;2023-12-20T04:08:01;6.40;97.90
22645;DHT22;11489;50.834;6.752;2023-12-20T04:10:27;6.40;97.90
22645;DHT22;11489;50.834;6.752;2023-12-20T04:12:53;6.40;97.90
22645;DHT22;11489;50.834;6.752;2023-12-20T04:15:18;6.40;97.80
22645;DHT22;11489;50.834;6.752;2023-12-20T04:17:44;6.40;97.80
22645;DHT22;11489;50.834;6.752;2023-12-20T04:20:10;6.40;97.80
22645;DHT22;11489;50.834;6.752;2023-12-20T04:22:35;6.30;97.70
22645;DHT22;11489;50.834;6.752;2023-12-20T04:25:01;6.30;97.70
22645;DHT22;11489;50.834;6.752;2023-12-20T04:27:27;6.30;97.70
22645;DHT22;11489;50.834;6.752;2023-12-20T04:29:53;6.30;97.70
22645;DHT22;11489;50.834;6.752;2023-12-20T04:32:19;6.30;97.70
22645;DHT22;11489;50.834;6.752;2023-12-20T04:34:44;6.30;97.80
22645;DHT22;11489;50.834;6.752;2023-12-20T04:37:10;6.30;97.80
22645;DHT22;11489;50.834;6.752;2023-12-20T04:39:36;6.30;97.80
22645;DHT22;11489;50.834;6.752;2023-12-20T04:42:01;6.30;97.80
22645;DHT22;11489;50.834;6.752;2023-12-20T04:44:27;6.30;97.70
22645;DHT22;11489;50.834;6.752;2023-12-20T04:46:52;6.30;97.70
22645;DHT22;11489;50.834;6.752;2023-12-20T04:49:18;6.20;97.60
22645;DHT22;11489;50.834;6.752;2023-12-20T04:51:44;6.20;97.50
22645;DHT22;11489;50.834;6.752;2023-12-20T04:54:09;6.20;97.40
22645;DHT22;11489;50.834;6.752;2023-12-20T04:56:36;6.20;97.40
22645;DHT22;11489;50.834;6.752;2023-12-20T04:59:01;6.10;97.50
22645;DHT22;11489;50.834;6.752;2023-12-20T05:01:27;6.10;97.50
22645;DHT22;11489;50.834;6.752;2023-12-20T05:03:53;6.10;97.50
22645;DHT22;11489;50.834;6.752;2023-12-20T05:06:19;6.10;97.50
22645;DHT22;11489;50.834;6.752;2023-12-20T05:08:44;6.10;97.50
22645;DHT22;11489;50.834;6.752;2023-12-20T05:11:10;6.00;97.40
22645;DHT22;11489;50.834;6.752;2023-12-20T05:13:35;6.00;97.40
22645;DHT22;11489;50.834;6.752;2023-12-20T05:16:01;6.00;97.40
22645;DHT22;11489;50.834;6.752;2023-12-20T05:18:27;6.00;97.50
22645;DHT22;11489;50.834;6.752;2023-12-20T05:20:52;6.00;97.50
22645;DHT22;11489;50.834;6.752;2023-12-20T05:23:18;5.90;97.50
22645;DHT22;11489;50.834;6.752;2023-12-20T05:25:44;6.00;97.50
22645;DHT22;11489;50.834;6.752;2023-12-20T05:28:09;5.90;97.50
22645;DHT22;11489;50.834;6.752;2023-12-20T05:30:35;5.90;97.60
22645;DHT22;11489;50.834;6.752;2023-12-20T05:33:01;5.90;97.60
22645;DHT22;11489;50.834;6.752;2023-12-20T05:35:26;5.90;97.60
22645;DHT22;11489;50.834;6.752;2023-12-20T05:37:52;5.90;97.60
22645;DHT22;11489;50.834;6.752;2023-12-20T05:40:17;5.90;98.00
22645;DHT22;11489;50.834;6.752;2023-12-20T05:42:43;5.90;97.80
22645;DHT22;11489;50.834;6.752;2023-12-20T05:45:09;5.90;97.90
22645;DHT22;11489;50.834;6.752;2023-12-20T05:47:35;5.90;97.90
22645;DHT22;11489;50.834;6.752;2023-12-20T05:50:00;5.90;97.80
22645;DHT22;11489;50.834;6.752;2023-12-20T05:52:26;5.90;97.80
22645;DHT22;11489;50.834;6.752;2023-12-20T05:54:52;5.90;97.80
22645;DHT22;11489;50.834;6.752;2023-12-20T05:57:17;6.00;97.80
22645;DHT22;11489;50.834;6.752;2023-12-20T05:59:43;5.90;97.90
22645;DHT22;11489;50.834;6.752;2023-12-20T06:02:08;5.90;97.90
22645;DHT22;11489;50.834;6.752;2023-12-20T06:04:34;6.00;98.30
22645;DHT22;11489;50.834;6.752;2023-12-20T06:07:00;6.00;98.00
22645;DHT22;11489;50.834;6.752;2023-12-20T06:09:28;6.00;98.00
22645;DHT22;11489;50.834;6.752;2023-12-20T06:11:54;6.00;98.00
22645;DHT22;11489;50.834;6.752;2023-12-20T06:14:20;6.00;98.00
22645;DHT22;11489;50.834;6.752;2023-12-20T06:16:46;6.10;98.10
22645;DHT22;11489;50.834;6.752;2023-12-20T06:19:11;6.10;98.10
22645;DHT22;11489;50.834;6.752;2023-12-20T06:21:37;6.10;98.10
22645;DHT22;11489;50.834;6.752;2023-12-20T06:24:03;6.20;98.10
22645;DHT22;11489;50.834;6.752;2023-12-20T06:26:29;6.20;98.10
22645;DHT22;11489;50.834;6.752;2023-12-20T06:28:54;6.20;98.10
22645;DHT22;11489;50.834;6.752;2023-12-20T06:31:21;6.20;98.10
22645;DHT22;11489;50.834;6.752;2023-12-20T06:33:46;6.30;98.10
22645;DHT22;11489;50.834;6.752;2023-12-20T06:36:13;6.30;98.00
22645;DHT22;11489;50.834;6.752;2023-12-20T06:38:39;6.30;98.00
22645;DHT22;11489;50.834;6.752;2023-12-20T06:41:05;6.30;98.00
22645;DHT22;11489;50.834;6.752;2023-12-20T06:43:31;6.30;97.90
22645;DHT22;11489;50.834;6.752;2023-12-20T06:45:58;6.40;97.90
22645;DHT22;11489;50.834;6.752;2023-12-20T06:48:24;6.40;97.90
22645;DHT22;11489;50.834;6.752;2023-12-20T06:50:49;6.40;97.90
22645;DHT22;11489;50.834;6.752;2023-12-20T06:53:15;6.40;97.80
22645;DHT22;11489;50.834;6.752;2023-12-20T06:55:40;6.40;97.80
22645;DHT22;11489;50.834;6.752;2023-12-20T06:58:06;6.40;97.80
22645;DHT22;11489;50.834;6.752;2023-12-20T07:00:32;6.50;97.80
22645;DHT22;11489;50.834;6.752;2023-12-20T07:02:58;6.50;97.80
22645;DHT22;11489;50.834;6.752;2023-12-20T07:05:24;6.50;97.80
22645;DHT22;11489;50.834;6.752;2023-12-20T07:07:49;6.50;97.80
22645;DHT22;11489;50.834;6.752;2023-12-20T07:10:15;6.50;97.70
22645;DHT22;11489;50.834;6.752;2023-12-20T07:12:41;6.50;97.70
22645;DHT22;11489;50.834;6.752;2023-12-20T07:15:07;6.50;97.70
22645;DHT22;11489;50.834;6.752;2023-12-20T07:17:34;6.50;97.70
22645;DHT22;11489;50.834;6.752;2023-12-20T07:20:00;6.50;97.70
22645;DHT22;11489;50.834;6.752;2023-12-20T07:22:30;6.50;97.70
22645;DHT22;11489;50.834;6.752;2023-12-20T07:24:58;6.50;97.70
22645;DHT22;11489;50.834;6.752;2023-12-20T07:27:23;6.50;97.70
22645;DHT22;11489;50.834;6.752;2023-12-20T07:29:49;6.50;97.70
22645;DHT22;11489;50.834;6.752;2023-12-20T07:32:15;6.50;97.70
22645;DHT22;11489;50.834;6.752;2023-12-20T07:34:40;6.50;97.70
22645;DHT22;11489;50.834;6.752;2023-12-20T07:37:06;6.60;97.70
22645;DHT22;11489;50.834;6.752;2023-12-20T07:39:32;6.60;97.70
22645;DHT22;11489;50.834;6.752;2023-12-20T07:41:57;6.60;97.70
22645;DHT22;11489;50.834;6.752;2023-12-20T07:44:23;6.60;97.70
22645;DHT22;11489;50.834;6.752;2023-12-20T07:46:48;6.60;97.70
22645;DHT22;11489;50.834;6.752;2023-12-20T07:49:14;6.60;97.70
22645;DHT22;11489;50.834;6.752;2023-12-20T07:51:40;6.70;97.70
22645;DHT22;11489;50.834;6.752;2023-12-20T07:54:05;6.70;97.70
22645;DHT22;11489;50.834;6.752;2023-12-20T07:56:33;6.70;97.70
22645;DHT22;11489;50.834;6.752;2023-12-20T07:58:59;6.70;97.70
22645;DHT22;11489;50.834;6.752;2023-12-20T08:01:24;6.70;97.70
22645;DHT22;11489;50.834;6.752;2023-12-20T08:03:50;6.70;97.70
22645;DHT22;11489;50.834;6.752;2023-12-20T08:06:16;6.70;97.60
22645;DHT22;11489;50.834;6.752;2023-12-20T08:08:43;6.70;97.60
22645;DHT22;11489;50.834;6.752;2023-12-20T08:11:08;6.70;97.60
22645;DHT22;11489;50.834;6.752;2023-12-20T08:13:34;6.70;97.50
22645;DHT22;11489;50.834;6.752;2023-12-20T08:16:00;6.70;97.50
22645;DHT22;11489;50.834;6.752;2023-12-20T08:18:28;6.80;97.50
22645;DHT22;11489;50.834;6.752;2023-12-20T08:20:53;6.80;97.50
22645;DHT22;11489;50.834;6.752;2023-12-20T08:23:19;6.80;97.60
22645;DHT22;11489;50.834;6.752;2023-12-20T08:25:46;6.70;97.50
22645;DHT22;11489;50.834;6.752;2023-12-20T08:28:12;6.70;97.40
22645;DHT22;11489;50.834;6.752;2023-12-20T08:30:38;6.80;97.40
22645;DHT22;11489;50.834;6.752;2023-12-20T08:33:04;6.70;97.40
22645;DHT22;11489;50.834;6.752;2023-12-20T08:35:30;6.80;97.30
22645;DHT22;11489;50.834;6.752;2023-12-20T08:37:56;6.70;97.20
22645;DHT22;11489;50.834;6.752;2023-12-20T08:40:22;6.70;97.20
22645;DHT22;11489;50.834;6.752;2023-12-20T08:42:47;6.70;97.30
22645;DHT22;11489;50.834;6.752;2023-12-20T08:45:13;6.70;97.50
22645;DHT22;11489;50.834;6.752;2023-12-20T08:47:38;6.70;97.70
22645;DHT22;11489;50.834;6.752;2023-12-20T08:50:06;6.70;97.80
22645;DHT22;11489;50.834;6.752;2023-12-20T08:52:32;6.80;98.00
22645;DHT22;11489;50.834;6.752;2023-12-20T08:54:58;6.80;98.00
22645;DHT22;11489;50.834;6.752;2023-12-20T08:57:24;6.90;98.00
22645;DHT22;11489;50.834;6.752;2023-12-20T08:59:50;6.90;98.30
22645;DHT22;11489;50.834;6.752;2023-12-20T09:02:17;7.00;98.10
22645;DHT22;11489;50.834;6.752;2023-12-20T09:04:43;7.10;98.30
22645;DHT22;11489;50.834;6.752;2023-12-20T09:07:22;7.10;98.00
22645;DHT22;11489;50.834;6.752;2023-12-20T09:09:48;7.20;97.80
22645;DHT22;11489;50.834;6.752;2023-12-20T09:12:14;7.20;97.90
22645;DHT22;11489;50.834;6.752;2023-12-20T09:14:39;7.30;97.90
22645;DHT22;11489;50.834;6.752;2023-12-20T09:17:06;7.30;97.80
22645;DHT22;11489;50.834;6.752;2023-12-20T09:19:34;7.40;97.80
22645;DHT22;11489;50.834;6.752;2023-12-20T09:22:00;7.40;97.50
22645;DHT22;11489;50.834;6.752;2023-12-20T09:24:26;7.40;97.50
22645;DHT22;11489;50.834;6.752;2023-12-20T09:26:51;7.40;97.60
22645;DHT22;11489;50.834;6.752;2023-12-20T09:29:17;7.40;97.30
22645;DHT22;11489;50.834;6.752;2023-12-20T09:31:44;7.40;97.30
22645;DHT22;11489;50.834;6.752;2023-12-20T09:34:12;7.40;97.20
22645;DHT22;11489;50.834;6.752;2023-12-20T09:36:37;7.40;97.20
22645;DHT22;11489;50.834;6.752;2023-12-20T09:39:06;7.40;97.10
22645;DHT22;11489;50.834;6.752;2023-12-20T09:41:32;7.40;97.10
22645;DHT22;11489;50.834;6.752;2023-12-20T09:44:02;7.40;97.10
22645;DHT22;11489;50.834;6.752;2023-12-20T09:46:29;7.40;97.10
22645;DHT22;11489;50.834;6.752;2023-12-20T09:48:59;7.40;97.10
22645;DHT22;11489;50.834;6.752;2023-12-20T09:51:26;7.40;97.20
22645;DHT22;11489;50.834;6.752;2023-12-20T09:53:54;7.30;97.10
22645;DHT22;11489;50.834;6.752;2023-12-20T09:56:23;7.30;97.10
22645;DHT22;11489;50.834;6.752;2023-12-20T09:58:50;7.40;97.20
22645;DHT22;11489;50.834;6.752;2023-12-20T10:01:16;7.40;97.20
22645;DHT22;11489;50.834;6.752;2023-12-20T10:03:42;7.40;97.30
22645;DHT22;11489;50.834;6.752;2023-12-20T10:06:08;7.40;97.30
22645;DHT22;11489;50.834;6.752;2023-12-20T10:08:34;7.40;97.40
22645;DHT22;11489;50.834;6.752;2023-12-20T10:11:00;7.40;97.40
22645;DHT22;11489;50.834;6.752;2023-12-20T10:13:28;7.50;97.50
22645;DHT22;11489;50.834;6.752;2023-12-20T10:15:55;7.50;97.50
22645;DHT22;11489;50.834;6.752;2023-12-20T10:18:21;7.50;97.40
22645;DHT22;11489;50.834;6.752;2023-12-20T10:20:47;7.60;97.40
22645;DHT22;11489;50.834;6.752;2023-12-20T10:23:13;7.60;97.40
22645;DHT22;11489;50.834;6.752;2023-12-20T10:25:39;7.60;97.30
22645;DHT22;11489;50.834;6.752;2023-12-20T10:28:15;7.60;97.40
22645;DHT22;11489;50.834;6.752;2023-12-20T10:30:44;7.70;97.10
22645;DHT22;11489;50.834;6.752;2023-12-20T10:33:10;7.70;97.20
22645;DHT22;11489;50.834;6.752;2023-12-20T10:35:38;7.60;97.20
22645;DHT22;11489;50.834;6.752;2023-12-20T10:38:05;7.70;97.20
22645;DHT22;11489;50.834;6.752;2023-12-20T10:40:34;7.70;97.20
22645;DHT22;11489;50.834;6.752;2023-12-20T10:43:01;7.70;97.20
22645;DHT22;11489;50.834;6.752;2023-12-20T10:45:27;7.70;97.30
22645;DHT22;11489;50.834;6.752;2023-12-20T10:47:53;7.70;97.40
22645;DHT22;11489;50.834;6.752;2023-12-20T10:50:19;7.80;97.40
22645;DHT22;11489;50.834;6.752;2023-12-20T10:52:46;7.80;97.40
22645;DHT22;11489;50.834;6.752;2023-12-20T10:55:12;7.80;97.30
22645;DHT22;11489;50.834;6.752;2023-12-20T10:57:38;7.80;97.30
22645;DHT22;11489;50.834;6.752;2023-12-20T11:00:06;7.80;97.30
22645;DHT22;11489;50.834;6.752;2023-12-20T11:02:38;7.80;97.60
22645;DHT22;11489;50.834;6.752;2023-12-20T11:05:06;7.90;97.20
22645;DHT22;11489;50.834;6.752;2023-12-20T11:07:39;7.90;97.20
22645;DHT22;11489;50.834;6.752;2023-12-20T11:10:18;7.90;97.30
22645;DHT22;11489;50.834;6.752;2023-12-20T11:13:02;7.90;97.00
22645;DHT22;11489;50.834;6.752;2023-12-20T11:15:37;7.90;96.70
22645;DHT22;11489;50.834;6.752;2023-12-20T11:18:04;7.90;97.10
22645;DHT22;11489;50.834;6.752;2023-12-20T11:20:40;7.90;97.00
22645;DHT22;11489;50.834;6.752;2023-12-20T11:23:08;8.00;96.70
22645;DHT22;11489;50.834;6.752;2023-12-20T11:25:52;7.90;97.00
22645;DHT22;11489;50.834;6.752;2023-12-20T11:28:24;7.90;96.70
22645;DHT22;11489;50.834;6.752;2023-12-20T11:30:55;7.90;96.90
22645;DHT22;11489;50.834;6.752;2023-12-20T11:33:22;7.90;96.90
22645;DHT22;11489;50.834;6.752;2023-12-20T11:35:49;7.90;96.90
22645;DHT22;11489;50.834;6.752;2023-12-20T11:38:15;7.90;96.90
22645;DHT22;11489;50.834;6.752;2023-12-20T11:40:44;7.80;96.90
22645;DHT22;11489;50.834;6.752;2023-12-20T11:43:09;7.90;97.00
22645;DHT22;11489;50.834;6.752;2023-12-20T11:45:35;7.90;97.00
22645;DHT22;11489;50.834;6.752;2023-12-20T11:48:04;7.80;97.00
22645;DHT22;11489;50.834;6.752;2023-12-20T11:50:30;7.90;97.10
22645;DHT22;11489;50.834;6.752;2023-12-20T11:52:56;7.90;97.10
22645;DHT22;11489;50.834;6.752;2023-12-20T11:55:22;7.90;97.10
22645;DHT22;11489;50.834;6.752;2023-12-20T11:57:50;7.90;97.10
22645;DHT22;11489;50.834;6.752;2023-12-20T12:00:17;7.90;97.20
22645;DHT22;11489;50.834;6.752;2023-12-20T12:02:43;7.90;97.10
22645;DHT22;11489;50.834;6.752;2023-12-20T12:05:09;7.90;97.10
22645;DHT22;11489;50.834;6.752;2023-12-20T12:07:35;7.90;97.00
22645;DHT22;11489;50.834;6.752;2023-12-20T12:10:01;8.00;97.10
22645;DHT22;11489;50.834;6.752;2023-12-20T12:12:26;8.00;97.10
22645;DHT22;11489;50.834;6.752;2023-12-20T12:14:54;8.00;97.10
22645;DHT22;11489;50.834;6.752;2023-12-20T12:17:20;8.00;97.10
22645;DHT22;11489;50.834;6.752;2023-12-20T12:19:45;8.00;97.00
22645;DHT22;11489;50.834;6.752;2023-12-20T12:22:13;8.00;97.00
22645;DHT22;11489;50.834;6.752;2023-12-20T12:24:48;8.00;97.00
22645;DHT22;11489;50.834;6.752;2023-12-20T12:27:15;8.00;96.80
22645;DHT22;11489;50.834;6.752;2023-12-20T12:29:41;7.90;97.00
22645;DHT22;11489;50.834;6.752;2023-12-20T12:32:25;8.00;97.00
22645;DHT22;11489;50.834;6.752;2023-12-20T12:34:50;8.00;97.30
22645;DHT22;11489;50.834;6.752;2023-12-20T12:37:16;8.00;96.90
22645;DHT22;11489;50.834;6.752;2023-12-20T12:39:42;7.90;96.90
22645;DHT22;11489;50.834;6.752;2023-12-20T12:42:08;8.00;96.90
22645;DHT22;11489;50.834;6.752;2023-12-20T12:44:33;7.90;96.80
22645;DHT22;11489;50.834;6.752;2023-12-20T12:46:59;8.00;96.90
22645;DHT22;11489;50.834;6.752;2023-12-20T12:49:25;7.90;96.90
22645;DHT22;11489;50.834;6.752;2023-12-20T12:51:51;8.00;96.90
22645;DHT22;11489;50.834;6.752;2023-12-20T12:54:17;8.00;97.00
22645;DHT22;11489;50.834;6.752;2023-12-20T12:56:44;8.00;97.00
22645;DHT22;11489;50.834;6.752;2023-12-20T12:59:09;8.00;97.00
22645;DHT22;11489;50.834;6.752;2023-12-20T13:01:35;8.00;97.00
22645;DHT22;11489;50.834;6.752;2023-12-20T13:04:01;7.90;97.00
22645;DHT22;11489;50.834;6.752;2023-12-20T13:06:32;7.90;97.00
22645;DHT22;11489;50.834;6.752;2023-12-20T13:08:58;8.00;97.00
22645;DHT22;11489;50.834;6.752;2023-12-20T13:11:23;8.00;97.00
22645;DHT22;11489;50.834;6.752;2023-12-20T13:13:50;8.00;96.90
22645;DHT22;11489;50.834;6.752;2023-12-20T13:16:16;7.90;96.70
22645;DHT22;11489;50.834;6.752;2023-12-20T13:18:41;7.90;96.70
22645;DHT22;11489;50.834;6.752;2023-12-20T13:21:08;7.90;96.60
22645;DHT22;11489;50.834;6.752;2023-12-20T13:23:34;7.80;96.60
22645;DHT22;11489;50.834;6.752;2023-12-20T13:26:00;7.70;96.60
22645;DHT22;11489;50.834;6.752;2023-12-20T13:28:26;7.70;96.60
22645;DHT22;11489;50.834;6.752;2023-12-20T13:30:52;7.60;96.70
22645;DHT22;11489;50.834;6.752;2023-12-20T13:33:17;7.50;96.80
22645;DHT22;11489;50.834;6.752;2023-12-20T13:35:43;7.50;96.90
22645;DHT22;11489;50.834;6.752;2023-12-20T13:38:09;7.40;97.00
22645;DHT22;11489;50.834;6.752;2023-12-20T13:40:35;7.40;97.10
22645;DHT22;11489;50.834;6.752;2023-12-20T13:43:00;7.40;97.30
22645;DHT22;11489;50.834;6.752;2023-12-20T13:45:28;7.40;97.40
22645;DHT22;11489;50.834;6.752;2023-12-20T13:47:54;7.40;97.40
22645;DHT22;11489;50.834;6.752;2023-12-20T13:50:19;7.50;97.50
22645;DHT22;11489;50.834;6.752;2023-12-20T13:52:45;7.50;97.50
22645;DHT22;11489;50.834;6.752;2023-12-20T13:55:11;7.50;97.50
22645;DHT22;11489;50.834;6.752;2023-12-20T13:57:37;7.50;97.50
22645;DHT22;11489;50.834;6.752;2023-12-20T14:00:04;7.60;97.50
22645;DHT22;11489;50.834;6.752;2023-12-20T14:02:30;7.60;97.50
22645;DHT22;11489;50.834;6.752;2023-12-20T14:04:56;7.60;97.40
22645;DHT22;11489;50.834;6.752;2023-12-20T14:07:21;7.60;97.40
22645;DHT22;11489;50.834;6.752;2023-12-20T14:09:47;7.60;97.40
22645;DHT22;11489;50.834;6.752;2023-12-20T14:12:13;7.60;97.40
22645;DHT22;11489;50.834;6.752;2023-12-20T14:14:39;7.70;97.40
22645;DHT22;11489;50.834;6.752;2023-12-20T14:17:05;7.70;97.40
22645;DHT22;11489;50.834;6.752;2023-12-20T14:19:34;7.70;97.40
22645;DHT22;11489;50.834;6.752;2023-12-20T14:22:00;7.70;97.40
22645;DHT22;11489;50.834;6.752;2023-12-20T14:24:29;7.70;97.30
22645;DHT22;11489;50.834;6.752;2023-12-20T14:26:55;7.70;97.30
22645;DHT22;11489;50.834;6.752;2023-12-20T14:29:21;7.70;97.30
22645;DHT22;11489;50.834;6.752;2023-12-20T14:31:46;7.70;97.30
22645;DHT22;11489;50.834;6.752;2023-12-20T14:34:12;7.70;97.30
22645;DHT22;11489;50.834;6.752;2023-12-20T14:36:38;7.70;97.30
22645;DHT22;11489;50.834;6.752;2023-12-20T14:39:04;7.70;97.40
22645;DHT22;11489;50.834;6.752;2023-12-20T14:41:30;7.80;97.50
22645;DHT22;11489;50.834;6.752;2023-12-20T14:43:56;7.80;97.50
22645;DHT22;11489;50.834;6.752;2023-12-20T14:46:22;7.80;97.60
22645;DHT22;11489;50.834;6.752;2023-12-20T14:48:47;7.80;97.60
22645;DHT22;11489;50.834;6.752;2023-12-20T14:51:14;7.90;97.70
22645;DHT22;11489;50.834;6.752;2023-12-20T14:53:40;7.90;97.70
22645;DHT22;11489;50.834;6.752;2023-12-20T14:56:07;7.90;97.70
22645;DHT22;11489;50.834;6.752;2023-12-20T14:58:33;8.00;97.70
22645;DHT22;11489;50.834;6.752;2023-12-20T15:01:00;8.00;97.60
22645;DHT22;11489;50.834;6.752;2023-12-20T15:03:26;8.00;97.50
22645;DHT22;11489;50.834;6.752;2023-12-20T15:05:52;8.00;97.50
22645;DHT22;11489;50.834;6.752;2023-12-20T15:08:17;8.00;97.40
22645;DHT22;11489;50.834;6.752;2023-12-20T15:10:43;8.10;97.40
22645;DHT22;11489;50.834;6.752;2023-12-20T15:13:09;8.10;97.30
22645;DHT22;11489;50.834;6.752;2023-12-20T15:15:34;8.10;97.30
22645;DHT22;11489;50.834;6.752;2023-12-20T15:18:00;8.10;97.30
22645;DHT22;11489;50.834;6.752;2023-12-20T15:20:26;8.10;97.30
22645;DHT22;11489;50.834;6.752;2023-12-20T15:22:52;8.10;97.20
22645;DHT22;11489;50.834;6.752;2023-12-20T15:25:19;8.10;97.20
22645;DHT22;11489;50.834;6.752;2023-12-20T15:27:48;8.00;97.20
22645;DHT22;11489;50.834;6.752;2023-12-20T15:30:21;8.10;97.20
22645;DHT22;11489;50.834;6.752;2023-12-20T15:32:48;8.10;97.20
22645;DHT22;11489;50.834;6.752;2023-12-20T15:35:14;8.00;97.20
22645;DHT22;11489;50.834;6.752;2023-12-20T15:37:40;8.00;97.20
22645;DHT22;11489;50.834;6.752;2023-12-20T15:40:08;8.00;97.20